sensor_id;sensor_type;location;lat;lon;timestamp;pressure;altitude;pressure_sealevel;temperature;humidity
23170;BME280;11753;43.144;24.714;2023-03-03T00:00:28;99935.16;;;5.24;100.00
23170;BME280;11753;43.144;24.714;2023-03-03T00:01:29;99927.81;;;5.06;100.00
23170;BME280;11753;43.144;24.714;2023-03-03T00:02:32;99937.47;;;4.92;100.00
23170;BME280;11753;43.144;24.714;2023-03-03T00:03:33;99925.34;;;4.67;100.00
23170;BME280;11753;43.144;24.714;2023-03-03T00:04:34;99934.31;;;4.63;100.00
23170;BME280;11753;43.144;24.714;2023-03-03T00:05:35;99929.50;;;4.70;100.00
23170;BME280;11753;43.144;24.714;2023-03-03T00:06:37;99932.41;;;4.78;100.00
23170;BME280;11753;43.144;24.714;2023-03-03T00:07:38;99934.84;;;4.56;100.00
23170;BME280;11753;43.144;24.714;2023-03-03T00:08:39;99925.59;;;4.52;100.00
23170;BME280;11753;43.144;24.714;2023-03-03T00:09:40;99929.34;;;4.60;100.00
23170;BME280;11753;43.144;24.714;2023-03-03T00:10:41;99924.53;;;4.67;100.00
23170;BME280;11753;43.144;24.714;2023-03-03T00:11:42;99924.69;;;4.77;100.00
23170;BME280;11753;43.144;24.714;2023-03-03T00:12:47;99917.78;;;4.88;100.00
23170;BME280;11753;43.144;24.714;2023-03-03T00:13:51;99909.78;;;5.03;100.00
23170;BME280;11753;43.144;24.714;2023-03-03T00:14:53;99911.84;;;5.10;100.00
23170;BME280;11753;43.144;24.714;2023-03-03T00:17:22;99907.56;;;5.09;100.00
23170;BME280;11753;43.144;24.714;2023-03-03T00:18:33;99908.53;;;5.08;100.00
23170;BME280;11753;43.144;24.714;2023-03-03T00:19:37;99910.91;;;5.11;100.00
23170;BME280;11753;43.144;24.714;2023-03-03T00:20:40;99903.47;;;5.18;100.00
23170;BME280;11753;43.144;24.714;2023-03-03T00:21:43;99901.09;;;5.15;100.00
23170;BME280;11753;43.144;24.714;2023-03-03T00:22:45;99906.56;;;5.23;100.00
23170;BME280;11753;43.144;24.714;2023-03-03T00:23:46;99905.19;;;5.30;100.00
23170;BME280;11753;43.144;24.714;2023-03-03T00:24:47;99901.75;;;5.30;100.00
23170;BME280;11753;43.144;24.714;2023-03-03T00:25:50;99908.38;;;5.34;100.00
23170;BME280;11753;43.144;24.714;2023-03-03T00:26:54;99909.84;;;5.38;100.00
23170;BME280;11753;43.144;24.714;2023-03-03T00:28:07;99898.31;;;5.40;100.00
23170;BME280;11753;43.144;24.714;2023-03-03T00:29:34;99901.19;;;5.48;100.00
23170;BME280;11753;43.144;24.714;2023-03-03T00:30:35;99900.03;;;5.52;100.00
23170;BME280;11753;43.144;24.714;2023-03-03T00:31:36;99896.72;;;5.50;100.00
23170;BME280;11753;43.144;24.714;2023-03-03T00:32:43;99900.53;;;5.58;100.00
23170;BME280;11753;43.144;24.714;2023-03-03T00:33:51;99889.13;;;5.59;100.00
23170;BME280;11753;43.144;24.714;2023-03-03T00:35:01;99888.19;;;5.60;100.00
23170;BME280;11753;43.144;24.714;2023-03-03T00:36:36;99890.09;;;5.58;100.00
23170;BME280;11753;43.144;24.714;2023-03-03T00:37:39;99887.47;;;5.58;100.00
23170;BME280;11753;43.144;24.714;2023-03-03T00:38:41;99891.28;;;5.65;100.00
23170;BME280;11753;43.144;24.714;2023-03-03T00:39:43;99880.56;;;5.57;100.00
23170;BME280;11753;43.144;24.714;2023-03-03T00:40:45;99881.25;;;5.47;100.00
23170;BME280;11753;43.144;24.714;2023-03-03T00:41:46;99875.53;;;5.42;100.00
23170;BME280;11753;43.144;24.714;2023-03-03T00:42:53;99877.94;;;5.45;100.00
23170;BME280;11753;43.144;24.714;2023-03-03T00:43:54;99875.78;;;5.39;100.00
23170;BME280;11753;43.144;24.714;2023-03-03T00:44:56;99870.09;;;5.45;100.00
23170;BME280;11753;43.144;24.714;2023-03-03T00:45:58;99880.53;;;5.45;100.00
23170;BME280;11753;43.144;24.714;2023-03-03T00:49:25;99870.56;;;5.39;100.00
23170;BME280;11753;43.144;24.714;2023-03-03T00:50:31;99871.84;;;5.34;100.00
23170;BME280;11753;43.144;24.714;2023-03-03T00:51:32;99867.19;;;5.26;100.00
23170;BME280;11753;43.144;24.714;2023-03-03T00:52:49;99859.16;;;5.29;100.00
23170;BME280;11753;43.144;24.714;2023-03-03T00:53:54;99865.06;;;5.31;100.00
23170;BME280;11753;43.144;24.714;2023-03-03T00:54:55;99862.47;;;5.31;100.00
23170;BME280;11753;43.144;24.714;2023-03-03T00:55:57;99862.00;;;5.37;100.00
23170;BME280;11753;43.144;24.714;2023-03-03T00:56:58;99860.22;;;5.38;100.00
23170;BME280;11753;43.144;24.714;2023-03-03T00:57:59;99871.72;;;5.35;100.00
23170;BME280;11753;43.144;24.714;2023-03-03T00:59:00;99859.28;;;5.39;100.00
23170;BME280;11753;43.144;24.714;2023-03-03T01:00:01;99867.63;;;5.44;100.00
23170;BME280;11753;43.144;24.714;2023-03-03T01:01:01;99862.00;;;5.37;100.00
23170;BME280;11753;43.144;24.714;2023-03-03T01:02:02;99857.75;;;5.36;100.00
23170;BME280;11753;43.144;24.714;2023-03-03T01:03:14;99855.41;;;5.20;100.00
23170;BME280;11753;43.144;24.714;2023-03-03T01:04:16;99855.59;;;5.30;100.00
23170;BME280;11753;43.144;24.714;2023-03-03T01:05:18;99850.81;;;5.35;100.00
23170;BME280;11753;43.144;24.714;2023-03-03T01:06:19;99844.63;;;5.25;100.00
23170;BME280;11753;43.144;24.714;2023-03-03T01:07:20;99853.69;;;5.32;100.00
23170;BME280;11753;43.144;24.714;2023-03-03T01:08:21;99859.28;;;5.39;100.00
23170;BME280;11753;43.144;24.714;2023-03-03T01:09:22;99853.00;;;5.41;100.00
23170;BME280;11753;43.144;24.714;2023-03-03T01:10:24;99851.47;;;5.50;100.00
23170;BME280;11753;43.144;24.714;2023-03-03T01:11:26;99852.91;;;5.54;100.00
23170;BME280;11753;43.144;24.714;2023-03-03T01:12:28;99850.53;;;5.62;100.00
23170;BME280;11753;43.144;24.714;2023-03-03T01:13:32;99844.50;;;5.62;100.00
23170;BME280;11753;43.144;24.714;2023-03-03T01:14:34;99848.88;;;5.61;100.00
23170;BME280;11753;43.144;24.714;2023-03-03T01:15:35;99853.25;;;5.49;100.00
23170;BME280;11753;43.144;24.714;2023-03-03T01:16:37;99845.72;;;5.34;100.00
23170;BME280;11753;43.144;24.714;2023-03-03T01:17:38;99838.72;;;5.23;100.00
23170;BME280;11753;43.144;24.714;2023-03-03T01:18:40;99848.38;;;5.10;100.00
23170;BME280;11753;43.144;24.714;2023-03-03T01:19:41;99845.06;;;5.08;100.00
23170;BME280;11753;43.144;24.714;2023-03-03T01:20:42;99849.97;;;5.23;100.00
23170;BME280;11753;43.144;24.714;2023-03-03T01:21:43;99842.28;;;5.22;100.00
23170;BME280;11753;43.144;24.714;2023-03-03T01:22:44;99843.94;;;5.23;100.00
23170;BME280;11753;43.144;24.714;2023-03-03T01:23:45;99848.47;;;5.32;100.00
23170;BME280;11753;43.144;24.714;2023-03-03T01:24:45;99847.28;;;5.36;100.00
23170;BME280;11753;43.144;24.714;2023-03-03T01:25:46;99841.84;;;5.39;100.00
23170;BME280;11753;43.144;24.714;2023-03-03T01:26:47;99842.09;;;5.47;100.00
23170;BME280;11753;43.144;24.714;2023-03-03T01:27:48;99839.97;;;5.52;100.00
23170;BME280;11753;43.144;24.714;2023-03-03T01:28:49;99841.38;;;5.57;100.00
23170;BME280;11753;43.144;24.714;2023-03-03T01:29:50;99839.72;;;5.56;100.00
23170;BME280;11753;43.144;24.714;2023-03-03T01:30:51;99837.84;;;5.58;100.00
23170;BME280;11753;43.144;24.714;2023-03-03T01:31:52;99836.78;;;5.60;100.00
23170;BME280;11753;43.144;24.714;2023-03-03T01:32:53;99843.41;;;5.64;100.00
23170;BME280;11753;43.144;24.714;2023-03-03T01:33:54;99838.81;;;5.68;100.00
23170;BME280;11753;43.144;24.714;2023-03-03T01:34:55;99843.06;;;5.69;100.00
23170;BME280;11753;43.144;24.714;2023-03-03T01:35:56;99840.00;;;5.75;100.00
23170;BME280;11753;43.144;24.714;2023-03-03T01:36:57;99830.72;;;5.71;100.00
23170;BME280;11753;43.144;24.714;2023-03-03T01:38:00;99836.06;;;5.69;100.00
23170;BME280;11753;43.144;24.714;2023-03-03T01:39:02;99835.25;;;5.69;100.00
23170;BME280;11753;43.144;24.714;2023-03-03T01:40:07;99838.47;;;5.72;100.00
23170;BME280;11753;43.144;24.714;2023-03-03T01:41:12;99828.94;;;5.71;100.00
23170;BME280;11753;43.144;24.714;2023-03-03T01:42:13;99834.06;;;5.73;100.00
23170;BME280;11753;43.144;24.714;2023-03-03T01:43:15;99839.75;;;5.78;100.00
23170;BME280;11753;43.144;24.714;2023-03-03T01:44:16;99835.47;;;5.77;100.00
23170;BME280;11753;43.144;24.714;2023-03-03T01:47:30;99827.91;;;5.74;100.00
23170;BME280;11753;43.144;24.714;2023-03-03T01:48:40;99831.09;;;5.77;100.00
23170;BME280;11753;43.144;24.714;2023-03-03T01:49:49;99834.44;;;5.79;100.00
23170;BME280;11753;43.144;24.714;2023-03-03T01:51:03;99831.34;;;5.74;100.00
23170;BME280;11753;43.144;24.714;2023-03-03T01:52:32;99828.59;;;5.65;100.00
23170;BME280;11753;43.144;24.714;2023-03-03T01:53:42;99829.06;;;5.59;100.00
23170;BME280;11753;43.144;24.714;2023-03-03T01:54:51;99830.09;;;5.56;100.00
23170;BME280;11753;43.144;24.714;2023-03-03T01:55:53;99827.63;;;5.43;100.00
23170;BME280;11753;43.144;24.714;2023-03-03T01:56:58;99826.22;;;5.50;100.00
23170;BME280;11753;43.144;24.714;2023-03-03T01:58:04;99829.53;;;5.52;100.00
23170;BME280;11753;43.144;24.714;2023-03-03T01:59:17;99832.34;;;5.38;100.00
23170;BME280;11753;43.144;24.714;2023-03-03T02:00:19;99826.66;;;5.44;100.00
23170;BME280;11753;43.144;24.714;2023-03-03T02:01:23;99820.75;;;5.53;100.00
23170;BME280;11753;43.144;24.714;2023-03-03T02:02:26;99820.50;;;5.57;100.00
23170;BME280;11753;43.144;24.714;2023-03-03T02:03:29;99829.19;;;5.68;100.00
23170;BME280;11753;43.144;24.714;2023-03-03T02:04:30;99829.78;;;5.61;100.00
23170;BME280;11753;43.144;24.714;2023-03-03T02:05:32;99834.03;;;5.62;100.00
23170;BME280;11753;43.144;24.714;2023-03-03T02:06:40;99832.50;;;5.70;100.00
23170;BME280;11753;43.144;24.714;2023-03-03T02:07:44;99829.06;;;5.59;100.00
23170;BME280;11753;43.144;24.714;2023-03-03T02:10:05;99826.09;;;5.63;100.00
23170;BME280;11753;43.144;24.714;2023-03-03T02:11:07;99825.25;;;5.63;100.00
23170;BME280;11753;43.144;24.714;2023-03-03T02:12:11;99829.78;;;5.61;100.00
23170;BME280;11753;43.144;24.714;2023-03-03T02:13:15;99825.50;;;5.60;100.00
23170;BME280;11753;43.144;24.714;2023-03-03T02:14:17;99828.34;;;5.68;100.00
23170;BME280;11753;43.144;24.714;2023-03-03T02:15:25;99825.03;;;5.66;100.00
23170;BME280;11753;43.144;24.714;2023-03-03T02:16:26;99830.25;;;5.66;100.00
23170;BME280;11753;43.144;24.714;2023-03-03T02:17:27;99823.00;;;5.69;100.00
23170;BME280;11753;43.144;24.714;2023-03-03T02:18:30;99824.56;;;5.72;100.00
23170;BME280;11753;43.144;24.714;2023-03-03T02:19:49;99827.91;;;5.74;100.00
23170;BME280;11753;43.144;24.714;2023-03-03T02:21:14;99832.88;;;5.77;100.00
23170;BME280;11753;43.144;24.714;2023-03-03T02:22:20;99827.44;;;5.80;100.00
23170;BME280;11753;43.144;24.714;2023-03-03T02:24:05;99822.19;;;5.80;100.00
23170;BME280;11753;43.144;24.714;2023-03-03T02:25:13;99829.78;;;5.83;100.00
23170;BME280;11753;43.144;24.714;2023-03-03T02:26:26;99825.53;;;5.82;100.00
23170;BME280;11753;43.144;24.714;2023-03-03T02:27:29;99826.09;;;5.86;100.00
23170;BME280;11753;43.144;24.714;2023-03-03T02:28:33;99823.28;;;5.89;100.00
23170;BME280;11753;43.144;24.714;2023-03-03T02:29:35;99825.78;;;5.79;100.00
23170;BME280;11753;43.144;24.714;2023-03-03T02:30:37;99827.31;;;5.82;100.00
23170;BME280;11753;43.144;24.714;2023-03-03T02:31:38;99825.28;;;5.74;100.00
23170;BME280;11753;43.144;24.714;2023-03-03T02:32:40;99828.56;;;5.53;100.00
23170;BME280;11753;43.144;24.714;2023-03-03T02:33:46;99823.84;;;5.59;100.00
23170;BME280;11753;43.144;24.714;2023-03-03T02:34:50;99821.94;;;5.61;100.00
23170;BME280;11753;43.144;24.714;2023-03-03T02:35:52;99823.97;;;5.68;100.00
23170;BME280;11753;43.144;24.714;2023-03-03T02:36:53;99829.06;;;5.59;100.00
23170;BME280;11753;43.144;24.714;2023-03-03T02:37:57;99829.53;;;5.64;100.00
23170;BME280;11753;43.144;24.714;2023-03-03T02:39:04;99820.75;;;5.65;100.00
23170;BME280;11753;43.144;24.714;2023-03-03T02:40:08;99821.22;;;5.70;100.00
23170;BME280;11753;43.144;24.714;2023-03-03T02:41:17;99827.41;;;5.69;100.00
23170;BME280;11753;43.144;24.714;2023-03-03T02:42:24;99824.53;;;5.61;100.00
23170;BME280;11753;43.144;24.714;2023-03-03T02:43:35;99823.59;;;5.62;100.00
23170;BME280;11753;43.144;24.714;2023-03-03T02:44:39;99828.34;;;5.68;100.00
23170;BME280;11753;43.144;24.714;2023-03-03T02:45:44;99822.72;;;5.50;100.00
23170;BME280;11753;43.144;24.714;2023-03-03T02:46:47;99825.72;;;5.57;100.00
23170;BME280;11753;43.144;24.714;2023-03-03T02:47:49;99823.94;;;5.46;100.00
23170;BME280;11753;43.144;24.714;2023-03-03T02:48:51;99827.81;;;5.29;100.00
23170;BME280;11753;43.144;24.714;2023-03-03T02:49:52;99816.44;;;5.30;100.00
23170;BME280;11753;43.144;24.714;2023-03-03T02:50:53;99820.63;;;5.09;100.00
23170;BME280;11753;43.144;24.714;2023-03-03T02:51:54;99831.66;;;5.12;100.00
23170;BME280;11753;43.144;24.714;2023-03-03T02:52:55;99826.59;;;5.22;100.00
23170;BME280;11753;43.144;24.714;2023-03-03T02:53:56;99827.69;;;5.31;100.00
23170;BME280;11753;43.144;24.714;2023-03-03T02:54:57;99824.97;;;5.32;100.00
23170;BME280;11753;43.144;24.714;2023-03-03T02:55:58;99823.63;;;5.27;100.00
23170;BME280;11753;43.144;24.714;2023-03-03T02:56:59;99832.28;;;5.27;100.00
23170;BME280;11753;43.144;24.714;2023-03-03T02:57:59;99827.88;;;5.16;100.00
23170;BME280;11753;43.144;24.714;2023-03-03T02:59:00;99834.34;;;5.35;100.00
23170;BME280;11753;43.144;24.714;2023-03-03T03:00:01;99830.81;;;5.12;100.00
23170;BME280;11753;43.144;24.714;2023-03-03T03:01:01;99824.22;;;5.19;100.00
23170;BME280;11753;43.144;24.714;2023-03-03T03:02:02;99826.06;;;5.06;100.00
23170;BME280;11753;43.144;24.714;2023-03-03T03:03:03;99824.50;;;5.03;100.00
23170;BME280;11753;43.144;24.714;2023-03-03T03:04:14;99828.94;;;5.14;100.00
23170;BME280;11753;43.144;24.714;2023-03-03T03:05:15;99826.88;;;5.06;100.00
23170;BME280;11753;43.144;24.714;2023-03-03T03:06:16;99826.69;;;5.09;100.00
23170;BME280;11753;43.144;24.714;2023-03-03T03:07:16;99825.13;;;4.83;100.00
23170;BME280;11753;43.144;24.714;2023-03-03T03:08:17;99821.00;;;4.80;100.00
23170;BME280;11753;43.144;24.714;2023-03-03T03:09:20;99824.47;;;4.92;100.00
23170;BME280;11753;43.144;24.714;2023-03-03T03:10:20;99825.53;;;4.89;100.00
23170;BME280;11753;43.144;24.714;2023-03-03T03:11:21;99827.19;;;4.90;100.00
23170;BME280;11753;43.144;24.714;2023-03-03T03:12:22;99826.28;;;5.03;100.00
23170;BME280;11753;43.144;24.714;2023-03-03T03:13:24;99820.78;;;5.18;100.00
23170;BME280;11753;43.144;24.714;2023-03-03T03:14:25;99827.84;;;5.05;100.00
23170;BME280;11753;43.144;24.714;2023-03-03T03:15:26;99820.25;;;5.02;100.00
23170;BME280;11753;43.144;24.714;2023-03-03T03:16:27;99818.97;;;5.08;100.00
23170;BME280;11753;43.144;24.714;2023-03-03T03:17:28;99820.53;;;4.86;100.00
23170;BME280;11753;43.144;24.714;2023-03-03T03:18:29;99825.28;;;4.92;100.00
23170;BME280;11753;43.144;24.714;2023-03-03T03:19:30;99821.97;;;4.90;100.00
23170;BME280;11753;43.144;24.714;2023-03-03T03:20:31;99826.22;;;4.80;100.00
23170;BME280;11753;43.144;24.714;2023-03-03T03:21:32;99822.38;;;4.73;100.00
23170;BME280;11753;43.144;24.714;2023-03-03T03:22:33;99815.03;;;4.78;100.00
23170;BME280;11753;43.144;24.714;2023-03-03T03:23:34;99825.19;;;4.70;100.00
23170;BME280;11753;43.144;24.714;2023-03-03T03:24:35;99821.31;;;4.52;100.00
23170;BME280;11753;43.144;24.714;2023-03-03T03:25:37;99817.66;;;4.54;100.00
23170;BME280;11753;43.144;24.714;2023-03-03T03:26:44;99820.22;;;4.67;100.00
23170;BME280;11753;43.144;24.714;2023-03-03T03:27:45;99813.22;;;4.67;100.00
23170;BME280;11753;43.144;24.714;2023-03-03T03:28:47;99816.88;;;4.65;100.00
23170;BME280;11753;43.144;24.714;2023-03-03T03:29:49;99817.25;;;4.48;100.00
23170;BME280;11753;43.144;24.714;2023-03-03T03:30:50;99809.44;;;4.48;100.00
23170;BME280;11753;43.144;24.714;2023-03-03T03:31:51;99800.66;;;4.49;100.00
23170;BME280;11753;43.144;24.714;2023-03-03T03:32:52;99808.19;;;4.40;100.00
23170;BME280;11753;43.144;24.714;2023-03-03T03:33:53;99806.94;;;4.46;100.00
23170;BME280;11753;43.144;24.714;2023-03-03T03:34:54;99800.59;;;4.37;100.00
23170;BME280;11753;43.144;24.714;2023-03-03T03:35:56;99804.22;;;4.48;100.00
23170;BME280;11753;43.144;24.714;2023-03-03T03:36:57;99799.72;;;4.50;100.00
23170;BME280;11753;43.144;24.714;2023-03-03T03:37:58;99799.44;;;4.41;100.00
23170;BME280;11753;43.144;24.714;2023-03-03T03:38:59;99797.81;;;4.28;100.00
23170;BME280;11753;43.144;24.714;2023-03-03T03:40:04;99799.69;;;4.26;100.00
23170;BME280;11753;43.144;24.714;2023-03-03T03:41:06;99798.88;;;4.25;100.00
23170;BME280;11753;43.144;24.714;2023-03-03T03:42:07;99802.09;;;4.29;100.00
23170;BME280;11753;43.144;24.714;2023-03-03T03:43:08;99793.25;;;4.19;100.00
23170;BME280;11753;43.144;24.714;2023-03-03T03:44:09;99795.13;;;4.29;100.00
23170;BME280;11753;43.144;24.714;2023-03-03T03:45:10;99791.97;;;4.37;100.00
23170;BME280;11753;43.144;24.714;2023-03-03T03:46:14;99787.78;;;4.34;100.00
23170;BME280;11753;43.144;24.714;2023-03-03T03:47:15;99794.44;;;4.38;100.00
23170;BME280;11753;43.144;24.714;2023-03-03T03:48:17;99792.25;;;4.45;100.00
23170;BME280;11753;43.144;24.714;2023-03-03T03:49:19;99799.16;;;4.33;100.00
23170;BME280;11753;43.144;24.714;2023-03-03T03:50:21;99795.00;;;4.31;100.00
23170;BME280;11753;43.144;24.714;2023-03-03T03:51:22;99787.63;;;4.12;100.00
23170;BME280;11753;43.144;24.714;2023-03-03T03:52:23;99800.13;;;4.20;100.00
23170;BME280;11753;43.144;24.714;2023-03-03T03:53:23;99795.81;;;4.07;100.00
23170;BME280;11753;43.144;24.714;2023-03-03T03:54:24;99794.75;;;4.10;100.00
23170;BME280;11753;43.144;24.714;2023-03-03T03:55:25;99791.38;;;4.21;100.00
23170;BME280;11753;43.144;24.714;2023-03-03T03:56:26;99782.81;;;4.31;100.00
23170;BME280;11753;43.144;24.714;2023-03-03T03:57:27;99777.59;;;4.31;100.00
23170;BME280;11753;43.144;24.714;2023-03-03T03:58:28;99779.00;;;4.35;100.00
23170;BME280;11753;43.144;24.714;2023-03-03T03:59:29;99778.66;;;4.29;100.00
23170;BME280;11753;43.144;24.714;2023-03-03T04:00:30;99774.69;;;4.23;100.00
23170;BME280;11753;43.144;24.714;2023-03-03T04:01:31;99777.03;;;4.15;100.00
23170;BME280;11753;43.144;24.714;2023-03-03T04:02:32;99775.69;;;4.33;100.00
23170;BME280;11753;43.144;24.714;2023-03-03T04:03:33;99764.66;;;4.30;100.00
23170;BME280;11753;43.144;24.714;2023-03-03T04:04:34;99776.88;;;4.29;100.00
23170;BME280;11753;43.144;24.714;2023-03-03T04:05:36;99778.31;;;4.33;100.00
23170;BME280;11753;43.144;24.714;2023-03-03T04:06:37;99775.25;;;4.39;100.00
23170;BME280;11753;43.144;24.714;2023-03-03T04:07:37;99780.97;;;4.45;100.00
23170;BME280;11753;43.144;24.714;2023-03-03T04:08:38;99778.19;;;4.35;100.00
23170;BME280;11753;43.144;24.714;2023-03-03T04:09:39;99778.31;;;4.33;100.00
23170;BME280;11753;43.144;24.714;2023-03-03T04:10:40;99772.53;;;4.41;100.00
23170;BME280;11753;43.144;24.714;2023-03-03T04:11:41;99776.47;;;4.47;100.00
23170;BME280;11753;43.144;24.714;2023-03-03T04:12:41;99785.69;;;4.39;100.00
23170;BME280;11753;43.144;24.714;2023-03-03T04:13:42;99773.44;;;4.29;100.00
23170;BME280;11753;43.144;24.714;2023-03-03T04:14:43;99773.19;;;4.32;100.00
23170;BME280;11753;43.144;24.714;2023-03-03T04:15:43;99777.78;;;4.28;100.00
23170;BME280;11753;43.144;24.714;2023-03-03T04:16:44;99774.25;;;4.29;100.00
23170;BME280;11753;43.144;24.714;2023-03-03T04:17:45;99774.47;;;4.26;100.00
23170;BME280;11753;43.144;24.714;2023-03-03T04:18:45;99775.19;;;4.28;100.00
23170;BME280;11753;43.144;24.714;2023-03-03T04:19:46;99774.47;;;4.26;100.00
23170;BME280;11753;43.144;24.714;2023-03-03T04:20:48;99772.69;;;4.27;100.00
23170;BME280;11753;43.144;24.714;2023-03-03T04:21:50;99780.06;;;4.09;100.00
23170;BME280;11753;43.144;24.714;2023-03-03T04:22:51;99781.44;;;4.02;100.00
23170;BME280;11753;43.144;24.714;2023-03-03T04:23:53;99783.28;;;4.00;100.00
23170;BME280;11753;43.144;24.714;2023-03-03T04:24:54;99775.56;;;4.11;100.00
23170;BME280;11753;43.144;24.714;2023-03-03T04:25:55;99768.69;;;4.10;100.00
23170;BME280;11753;43.144;24.714;2023-03-03T04:26:55;99770.25;;;4.00;100.00
23170;BME280;11753;43.144;24.714;2023-03-03T04:27:56;99772.66;;;4.03;100.00
23170;BME280;11753;43.144;24.714;2023-03-03T04:28:58;99769.78;;;3.82;100.00
23170;BME280;11753;43.144;24.714;2023-03-03T04:29:59;99776.66;;;3.83;100.00
23170;BME280;11753;43.144;24.714;2023-03-03T04:31:00;99766.34;;;3.81;100.00
23170;BME280;11753;43.144;24.714;2023-03-03T04:32:01;99773.97;;;3.72;100.00
23170;BME280;11753;43.144;24.714;2023-03-03T04:33:02;99776.53;;;3.84;100.00
23170;BME280;11753;43.144;24.714;2023-03-03T04:34:03;99782.38;;;3.88;100.00
23170;BME280;11753;43.144;24.714;2023-03-03T04:35:04;99777.03;;;4.02;100.00
23170;BME280;11753;43.144;24.714;2023-03-03T04:36:08;99782.56;;;3.98;100.00
23170;BME280;11753;43.144;24.714;2023-03-03T04:37:09;99776.63;;;3.96;100.00
23170;BME280;11753;43.144;24.714;2023-03-03T04:38:10;99771.00;;;4.02;100.00
23170;BME280;11753;43.144;24.714;2023-03-03T04:39:12;99771.81;;;4.15;100.00
23170;BME280;11753;43.144;24.714;2023-03-03T04:40:13;99771.19;;;4.11;100.00
23170;BME280;11753;43.144;24.714;2023-03-03T04:41:14;99777.34;;;4.10;100.00
23170;BME280;11753;43.144;24.714;2023-03-03T04:42:15;99770.34;;;4.11;100.00
23170;BME280;11753;43.144;24.714;2023-03-03T04:43:16;99770.78;;;4.05;100.00
23170;BME280;11753;43.144;24.714;2023-03-03T04:44:17;99771.19;;;3.99;100.00
23170;BME280;11753;43.144;24.714;2023-03-03T04:45:18;99763.19;;;4.02;100.00
23170;BME280;11753;43.144;24.714;2023-03-03T04:46:19;99763.03;;;4.16;100.00
23170;BME280;11753;43.144;24.714;2023-03-03T04:47:20;99766.59;;;4.15;100.00
23170;BME280;11753;43.144;24.714;2023-03-03T04:48:21;99767.19;;;4.19;100.00
23170;BME280;11753;43.144;24.714;2023-03-03T04:49:22;99770.44;;;4.22;100.00
23170;BME280;11753;43.144;24.714;2023-03-03T04:50:22;99769.97;;;4.28;100.00
23170;BME280;11753;43.144;24.714;2023-03-03T04:51:23;99770.28;;;4.36;100.00
23170;BME280;11753;43.144;24.714;2023-03-03T04:52:24;99770.28;;;4.36;100.00
23170;BME280;11753;43.144;24.714;2023-03-03T04:53:24;99776.91;;;4.40;100.00
23170;BME280;11753;43.144;24.714;2023-03-03T04:54:25;99769.06;;;4.29;100.00
23170;BME280;11753;43.144;24.714;2023-03-03T04:55:26;99766.72;;;4.37;100.00
23170;BME280;11753;43.144;24.714;2023-03-03T04:56:26;99773.47;;;4.40;100.00
23170;BME280;11753;43.144;24.714;2023-03-03T04:57:30;99776.09;;;4.40;100.00
23170;BME280;11753;43.144;24.714;2023-03-03T04:58:31;99771.69;;;4.40;100.00
23170;BME280;11753;43.144;24.714;2023-03-03T04:59:32;99768.53;;;4.48;100.00
23170;BME280;11753;43.144;24.714;2023-03-03T05:00:33;99775.94;;;4.54;100.00
23170;BME280;11753;43.144;24.714;2023-03-03T05:01:34;99783.91;;;4.64;100.00
23170;BME280;11753;43.144;24.714;2023-03-03T05:02:34;99783.91;;;4.64;100.00
23170;BME280;11753;43.144;24.714;2023-03-03T05:03:36;99782.25;;;4.63;100.00
23170;BME280;11753;43.144;24.714;2023-03-03T05:04:37;99787.84;;;4.69;100.00
23170;BME280;11753;43.144;24.714;2023-03-03T05:05:40;99785.13;;;4.71;100.00
23170;BME280;11753;43.144;24.714;2023-03-03T05:06:40;99779.69;;;4.74;100.00
23170;BME280;11753;43.144;24.714;2023-03-03T05:07:41;99782.56;;;4.82;100.00
23170;BME280;11753;43.144;24.714;2023-03-03T05:08:41;99782.13;;;4.88;100.00
23170;BME280;11753;43.144;24.714;2023-03-03T05:09:42;99781.88;;;4.91;100.00
23170;BME280;11753;43.144;24.714;2023-03-03T05:10:43;99781.69;;;4.94;100.00
23170;BME280;11753;43.144;24.714;2023-03-03T05:11:44;99782.06;;;5.01;100.00
23170;BME280;11753;43.144;24.714;2023-03-03T05:12:44;99780.75;;;5.07;100.00
23170;BME280;11753;43.144;24.714;2023-03-03T05:13:45;99779.31;;;5.03;100.00
23170;BME280;11753;43.144;24.714;2023-03-03T05:14:46;99787.41;;;5.11;100.00
23170;BME280;11753;43.144;24.714;2023-03-03T05:15:51;99782.66;;;5.05;100.00
23170;BME280;11753;43.144;24.714;2023-03-03T05:16:52;99790.16;;;5.09;100.00
23170;BME280;11753;43.144;24.714;2023-03-03T05:17:55;99782.19;;;5.11;100.00
23170;BME280;11753;43.144;24.714;2023-03-03T05:18:56;99784.34;;;5.17;100.00
23170;BME280;11753;43.144;24.714;2023-03-03T05:19:56;99787.91;;;5.27;100.00
23170;BME280;11753;43.144;24.714;2023-03-03T05:20:57;99793.75;;;5.31;100.00
23170;BME280;11753;43.144;24.714;2023-03-03T05:21:58;99789.81;;;5.25;100.00
23170;BME280;11753;43.144;24.714;2023-03-03T05:22:59;99792.44;;;5.25;100.00
23170;BME280;11753;43.144;24.714;2023-03-03T05:24:00;99790.72;;;5.13;100.00
23170;BME280;11753;43.144;24.714;2023-03-03T05:25:01;99787.16;;;5.14;100.00
23170;BME280;11753;43.144;24.714;2023-03-03T05:26:01;99795.94;;;5.13;100.00
23170;BME280;11753;43.144;24.714;2023-03-03T05:27:03;99784.72;;;5.23;100.00
23170;BME280;11753;43.144;24.714;2023-03-03T05:28:04;99786.25;;;5.26;100.00
23170;BME280;11753;43.144;24.714;2023-03-03T05:29:06;99789.88;;;5.36;100.00
23170;BME280;11753;43.144;24.714;2023-03-03T05:30:08;99784.63;;;5.36;100.00
23170;BME280;11753;43.144;24.714;2023-03-03T05:31:09;99782.38;;;5.43;100.00
23170;BME280;11753;43.144;24.714;2023-03-03T05:32:11;99795.91;;;5.48;100.00
23170;BME280;11753;43.144;24.714;2023-03-03T05:33:14;99787.25;;;5.36;100.00
23170;BME280;11753;43.144;24.714;2023-03-03T05:34:15;99784.97;;;5.43;100.00
23170;BME280;11753;43.144;24.714;2023-03-03T05:35:16;99789.75;;;5.49;100.00